KSAR/SAR METAR and TAF weather

Enter ICAO airport designator
Station Type Date Time Source
KSAR METAR 2021/08/05 05:15 UTC NOAA

KSAR 050515Z AUTO 00000KT 10SM CLR 16/15 A3014 RMK AO2 T01640151


Station Type Date Time Source
KSAR Decoded METAR 2021/08/05 05:15 UTC NOAA

Sparta, Sparta Community-Hunter Field Airport, IL, United States (KSAR) 38-08-56N 089-41-55W
Aug 05, 2021 - 01:15 AM EDT / 2021.08.05 0515 UTC
Wind: Calm:0
Visibility: 10 mile(s):0
Sky conditions: clear
Temperature: 61.5 F (16.4 C)
Dew Point: 59.2 F (15.1 C)
Relative Humidity: 92%
Pressure (altimeter): 30.14 in. Hg (1020 hPa)
ob: KSAR 050515Z AUTO 00000KT 10SM CLR 16/15 A3014 RMK AO2 T01640151
cycle: 5

Station Type Date Time Source
KSAR TAF UTC NOAA

Error!

Example: see airport list